sensor_id;sensor_type;location;lat;lon;timestamp;pressure;altitude;pressure_sealevel;temperature
82297;BMP280;71899;51.992;8.648;2023-09-07T00:01:42;100781.88;;;15.98
82297;BMP280;71899;51.992;8.648;2023-09-07T00:04:07;100786.78;;;15.92
82297;BMP280;71899;51.992;8.648;2023-09-07T00:06:32;100790.50;;;15.89
82297;BMP280;71899;51.992;8.648;2023-09-07T00:09:00;100785.75;;;15.70
82297;BMP280;71899;51.992;8.648;2023-09-07T00:11:25;100785.59;;;15.61
82297;BMP280;71899;51.992;8.648;2023-09-07T00:13:50;100785.84;;;15.58
82297;BMP280;71899;51.992;8.648;2023-09-07T00:16:16;100787.16;;;15.63
82297;BMP280;71899;51.992;8.648;2023-09-07T00:18:41;100785.50;;;15.73
82297;BMP280;71899;51.992;8.648;2023-09-07T00:21:07;100786.03;;;15.78
82297;BMP280;71899;51.992;8.648;2023-09-07T00:23:32;100784.22;;;15.79
82297;BMP280;71899;51.992;8.648;2023-09-07T00:25:57;100784.00;;;15.82
82297;BMP280;71899;51.992;8.648;2023-09-07T00:28:22;100780.75;;;15.78
82297;BMP280;71899;51.992;8.648;2023-09-07T00:30:48;100785.31;;;15.76
82297;BMP280;71899;51.992;8.648;2023-09-07T00:33:13;100787.72;;;15.79
82297;BMP280;71899;51.992;8.648;2023-09-07T00:35:38;100778.63;;;15.83
82297;BMP280;71899;51.992;8.648;2023-09-07T00:38:04;100780.78;;;15.90
82297;BMP280;71899;51.992;8.648;2023-09-07T00:40:30;100786.66;;;15.93
82297;BMP280;71899;51.992;8.648;2023-09-07T00:42:56;100787.72;;;15.79
82297;BMP280;71899;51.992;8.648;2023-09-07T00:45:21;100788.94;;;15.63
82297;BMP280;71899;51.992;8.648;2023-09-07T00:47:47;100789.13;;;15.49
82297;BMP280;71899;51.992;8.648;2023-09-07T00:50:13;100789.66;;;15.41
82297;BMP280;71899;51.992;8.648;2023-09-07T00:52:41;100790.56;;;15.29
82297;BMP280;71899;51.992;8.648;2023-09-07T00:55:07;100783.56;;;15.17
82297;BMP280;71899;51.992;8.648;2023-09-07T00:57:33;100782.38;;;15.21
82297;BMP280;71899;51.992;8.648;2023-09-07T00:59:59;100781.28;;;15.36
82297;BMP280;71899;51.992;8.648;2023-09-07T01:02:24;100777.56;;;15.38
82297;BMP280;71899;51.992;8.648;2023-09-07T01:04:52;100779.91;;;15.30
82297;BMP280;71899;51.992;8.648;2023-09-07T01:07:24;100780.69;;;15.20
82297;BMP280;71899;51.992;8.648;2023-09-07T01:09:54;100782.53;;;15.07
82297;BMP280;71899;51.992;8.648;2023-09-07T01:12:21;100780.69;;;14.96
82297;BMP280;71899;51.992;8.648;2023-09-07T01:14:46;100784.47;;;15.05
82297;BMP280;71899;51.992;8.648;2023-09-07T01:17:12;100783.22;;;14.98
82297;BMP280;71899;51.992;8.648;2023-09-07T01:19:39;100779.91;;;15.07
82297;BMP280;71899;51.992;8.648;2023-09-07T01:22:07;100777.97;;;15.21
82297;BMP280;71899;51.992;8.648;2023-09-07T01:24:33;100779.91;;;15.30
82297;BMP280;71899;51.992;8.648;2023-09-07T01:27:01;100778.34;;;15.28
82297;BMP280;71899;51.992;8.648;2023-09-07T01:29:28;100769.72;;;15.26
82297;BMP280;71899;51.992;8.648;2023-09-07T01:31:54;100775.38;;;15.32
82297;BMP280;71899;51.992;8.648;2023-09-07T01:34:20;100771.38;;;15.27
82297;BMP280;71899;51.992;8.648;2023-09-07T01:36:45;100776.00;;;15.12
82297;BMP280;71899;51.992;8.648;2023-09-07T01:39:10;100776.44;;;15.06
82297;BMP280;71899;51.992;8.648;2023-09-07T01:41:36;100776.16;;;14.98
82297;BMP280;71899;51.992;8.648;2023-09-07T01:44:01;100763.53;;;14.91
82297;BMP280;71899;51.992;8.648;2023-09-07T01:46:26;100773.47;;;14.87
82297;BMP280;71899;51.992;8.648;2023-09-07T01:48:52;100770.91;;;14.85
82297;BMP280;71899;51.992;8.648;2023-09-07T01:51:17;100767.88;;;14.79
82297;BMP280;71899;51.992;8.648;2023-09-07T01:53:42;100773.47;;;14.74
82297;BMP280;71899;51.992;8.648;2023-09-07T01:56:09;100776.09;;;14.74
82297;BMP280;71899;51.992;8.648;2023-09-07T01:58:34;100765.34;;;14.77
82297;BMP280;71899;51.992;8.648;2023-09-07T02:00:59;100769.00;;;14.87
82297;BMP280;71899;51.992;8.648;2023-09-07T02:03:25;100765.94;;;14.94
82297;BMP280;71899;51.992;8.648;2023-09-07T02:05:52;100766.66;;;14.96
82297;BMP280;71899;51.992;8.648;2023-09-07T02:08:18;100763.31;;;14.94
82297;BMP280;71899;51.992;8.648;2023-09-07T02:10:43;100767.28;;;14.99
82297;BMP280;71899;51.992;8.648;2023-09-07T02:13:08;100761.00;;;15.02
82297;BMP280;71899;51.992;8.648;2023-09-07T02:15:39;100761.53;;;14.94
82297;BMP280;71899;51.992;8.648;2023-09-07T02:18:06;100756.91;;;14.85
82297;BMP280;71899;51.992;8.648;2023-09-07T02:20:32;100764.00;;;14.72
82297;BMP280;71899;51.992;8.648;2023-09-07T02:22:58;100769.50;;;14.69
82297;BMP280;71899;51.992;8.648;2023-09-07T02:25:23;100763.53;;;14.54
82297;BMP280;71899;51.992;8.648;2023-09-07T02:27:49;100774.13;;;14.53
82297;BMP280;71899;51.992;8.648;2023-09-07T02:30:15;100759.09;;;14.55
82297;BMP280;71899;51.992;8.648;2023-09-07T02:32:42;100767.41;;;14.49
82297;BMP280;71899;51.992;8.648;2023-09-07T02:35:07;100766.03;;;14.56
82297;BMP280;71899;51.992;8.648;2023-09-07T02:37:35;100762.84;;;14.63
82297;BMP280;71899;51.992;8.648;2023-09-07T02:40:00;100761.47;;;14.70
82297;BMP280;71899;51.992;8.648;2023-09-07T02:42:26;100752.00;;;14.68
82297;BMP280;71899;51.992;8.648;2023-09-07T02:44:51;100759.91;;;14.68
82297;BMP280;71899;51.992;8.648;2023-09-07T02:47:17;100761.19;;;14.62
82297;BMP280;71899;51.992;8.648;2023-09-07T02:49:42;100752.72;;;14.70
82297;BMP280;71899;51.992;8.648;2023-09-07T02:52:08;100756.56;;;14.66
82297;BMP280;71899;51.992;8.648;2023-09-07T02:54:33;100761.19;;;14.62
82297;BMP280;71899;51.992;8.648;2023-09-07T02:56:59;100751.47;;;14.63
82297;BMP280;71899;51.992;8.648;2023-09-07T02:59:24;100755.41;;;14.57
82297;BMP280;71899;51.992;8.648;2023-09-07T03:01:50;100749.28;;;14.57
82297;BMP280;71899;51.992;8.648;2023-09-07T03:04:15;100755.94;;;14.50
82297;BMP280;71899;51.992;8.648;2023-09-07T03:06:41;100749.88;;;14.36
82297;BMP280;71899;51.992;8.648;2023-09-07T03:09:07;100747.50;;;14.32
82297;BMP280;71899;51.992;8.648;2023-09-07T03:11:36;100749.72;;;14.25
82297;BMP280;71899;51.992;8.648;2023-09-07T03:14:02;100755.72;;;14.15
82297;BMP280;71899;51.992;8.648;2023-09-07T03:16:27;100750.16;;;14.07
82297;BMP280;71899;51.992;8.648;2023-09-07T03:18:53;100750.78;;;14.10
82297;BMP280;71899;51.992;8.648;2023-09-07T03:21:19;100759.72;;;14.08
82297;BMP280;71899;51.992;8.648;2023-09-07T03:23:44;100757.53;;;14.02
82297;BMP280;71899;51.992;8.648;2023-09-07T03:26:12;100758.44;;;13.88
82297;BMP280;71899;51.992;8.648;2023-09-07T03:28:38;100758.97;;;13.93
82297;BMP280;71899;51.992;8.648;2023-09-07T03:31:04;100755.84;;;14.01
82297;BMP280;71899;51.992;8.648;2023-09-07T03:33:30;100755.72;;;14.02
82297;BMP280;71899;51.992;8.648;2023-09-07T03:35:55;100752.91;;;14.05
82297;BMP280;71899;51.992;8.648;2023-09-07T03:38:24;100755.19;;;14.10
82297;BMP280;71899;51.992;8.648;2023-09-07T03:40:50;100754.97;;;14.13
82297;BMP280;71899;51.992;8.648;2023-09-07T03:43:17;100767.94;;;14.16
82297;BMP280;71899;51.992;8.648;2023-09-07T03:45:43;100760.88;;;14.16
82297;BMP280;71899;51.992;8.648;2023-09-07T03:48:08;100761.94;;;14.14
82297;BMP280;71899;51.992;8.648;2023-09-07T03:50:35;100768.97;;;14.13
82297;BMP280;71899;51.992;8.648;2023-09-07T03:53:01;100767.19;;;14.14
82297;BMP280;71899;51.992;8.648;2023-09-07T03:55:26;100780.44;;;14.12
82297;BMP280;71899;51.992;8.648;2023-09-07T03:57:52;100771.72;;;14.12
82297;BMP280;71899;51.992;8.648;2023-09-07T04:00:18;100770.25;;;14.08
82297;BMP280;71899;51.992;8.648;2023-09-07T04:02:46;100768.13;;;14.00
82297;BMP280;71899;51.992;8.648;2023-09-07T04:05:11;100772.66;;;13.98
82297;BMP280;71899;51.992;8.648;2023-09-07T04:07:37;100772.22;;;13.91
82297;BMP280;71899;51.992;8.648;2023-09-07T04:10:03;100767.28;;;13.87
82297;BMP280;71899;51.992;8.648;2023-09-07T04:12:29;100769.19;;;13.98
82297;BMP280;71899;51.992;8.648;2023-09-07T04:14:55;100767.06;;;14.03
82297;BMP280;71899;51.992;8.648;2023-09-07T04:17:20;100764.44;;;14.03
82297;BMP280;71899;51.992;8.648;2023-09-07T04:19:46;100765.50;;;14.00
82297;BMP280;71899;51.992;8.648;2023-09-07T04:22:12;100763.59;;;14.02
82297;BMP280;71899;51.992;8.648;2023-09-07T04:24:37;100765.19;;;14.05
82297;BMP280;71899;51.992;8.648;2023-09-07T04:27:04;100766.44;;;13.99
82297;BMP280;71899;51.992;8.648;2023-09-07T04:29:31;100760.97;;;14.02
82297;BMP280;71899;51.992;8.648;2023-09-07T04:31:57;100757.06;;;13.95
82297;BMP280;71899;51.992;8.648;2023-09-07T04:34:22;100763.81;;;13.99
82297;BMP280;71899;51.992;8.648;2023-09-07T04:36:48;100765.16;;;13.92
82297;BMP280;71899;51.992;8.648;2023-09-07T04:39:13;100763.69;;;13.88
82297;BMP280;71899;51.992;8.648;2023-09-07T04:41:41;100764.97;;;13.95
82297;BMP280;71899;51.992;8.648;2023-09-07T04:44:07;100766.13;;;14.04
82297;BMP280;71899;51.992;8.648;2023-09-07T04:46:33;100756.88;;;14.23
82297;BMP280;71899;51.992;8.648;2023-09-07T04:48:59;100759.00;;;14.44
82297;BMP280;71899;51.992;8.648;2023-09-07T04:51:24;100753.22;;;14.51
82297;BMP280;71899;51.992;8.648;2023-09-07T04:53:51;100751.22;;;14.55
82297;BMP280;71899;51.992;8.648;2023-09-07T04:56:17;100747.81;;;14.53
82297;BMP280;71899;51.992;8.648;2023-09-07T04:58:43;100755.94;;;14.62
82297;BMP280;71899;51.992;8.648;2023-09-07T05:01:10;100748.66;;;14.53
82297;BMP280;71899;51.992;8.648;2023-09-07T05:03:36;100754.25;;;14.49
82297;BMP280;71899;51.992;8.648;2023-09-07T05:06:03;100748.50;;;14.44
82297;BMP280;71899;51.992;8.648;2023-09-07T05:08:29;100749.44;;;14.43
82297;BMP280;71899;51.992;8.648;2023-09-07T05:11:01;100755.75;;;14.40
82297;BMP280;71899;51.992;8.648;2023-09-07T05:13:28;100759.72;;;14.46
82297;BMP280;71899;51.992;8.648;2023-09-07T05:15:55;100759.19;;;14.53
82297;BMP280;71899;51.992;8.648;2023-09-07T05:18:21;100761.94;;;14.39
82297;BMP280;71899;51.992;8.648;2023-09-07T05:20:48;100763.75;;;14.38
82297;BMP280;71899;51.992;8.648;2023-09-07T05:23:21;100770.47;;;14.30
82297;BMP280;71899;51.992;8.648;2023-09-07T05:25:48;100767.84;;;14.43
82297;BMP280;71899;51.992;8.648;2023-09-07T05:28:15;100769.13;;;14.37
82297;BMP280;71899;51.992;8.648;2023-09-07T05:30:41;100764.69;;;14.37
82297;BMP280;71899;51.992;8.648;2023-09-07T05:33:09;100772.66;;;14.49
82297;BMP280;71899;51.992;8.648;2023-09-07T05:35:35;100773.38;;;14.63
82297;BMP280;71899;51.992;8.648;2023-09-07T05:38:03;100777.78;;;14.63
82297;BMP280;71899;51.992;8.648;2023-09-07T05:40:34;100775.69;;;14.68
82297;BMP280;71899;51.992;8.648;2023-09-07T05:42:59;100778.88;;;14.73
82297;BMP280;71899;51.992;8.648;2023-09-07T05:45:25;100781.34;;;14.87
82297;BMP280;71899;51.992;8.648;2023-09-07T05:47:50;100775.38;;;15.09
82297;BMP280;71899;51.992;8.648;2023-09-07T05:50:16;100781.75;;;15.17
82297;BMP280;71899;51.992;8.648;2023-09-07T05:52:41;100786.16;;;15.29
82297;BMP280;71899;51.992;8.648;2023-09-07T05:55:07;100784.00;;;15.11
82297;BMP280;71899;51.992;8.648;2023-09-07T05:57:32;100783.69;;;15.39
82297;BMP280;71899;51.992;8.648;2023-09-07T05:59:57;100784.75;;;15.60
82297;BMP280;71899;51.992;8.648;2023-09-07T06:02:23;100781.44;;;15.69
82297;BMP280;71899;51.992;8.648;2023-09-07T06:04:48;100789.53;;;15.90
82297;BMP280;71899;51.992;8.648;2023-09-07T06:07:14;100787.91;;;16.11
82297;BMP280;71899;51.992;8.648;2023-09-07T06:09:39;100788.84;;;16.10
82297;BMP280;71899;51.992;8.648;2023-09-07T06:12:05;100788.41;;;16.27
82297;BMP280;71899;51.992;8.648;2023-09-07T06:14:31;100791.44;;;16.56
82297;BMP280;71899;51.992;8.648;2023-09-07T06:16:56;100781.84;;;16.66
82297;BMP280;71899;51.992;8.648;2023-09-07T06:19:22;100790.00;;;16.74
82297;BMP280;71899;51.992;8.648;2023-09-07T06:21:47;100787.13;;;16.77
82297;BMP280;71899;51.992;8.648;2023-09-07T06:24:12;100796.81;;;16.99
82297;BMP280;71899;51.992;8.648;2023-09-07T06:26:38;100793.28;;;17.21
82297;BMP280;71899;51.992;8.648;2023-09-07T06:29:04;100799.22;;;17.45
82297;BMP280;71899;51.992;8.648;2023-09-07T06:31:29;100798.59;;;17.64
82297;BMP280;71899;51.992;8.648;2023-09-07T06:33:54;100801.56;;;17.91
82297;BMP280;71899;51.992;8.648;2023-09-07T06:36:20;100793.81;;;18.61
82297;BMP280;71899;51.992;8.648;2023-09-07T06:38:45;100791.06;;;19.31
82297;BMP280;71899;51.992;8.648;2023-09-07T06:41:11;100785.94;;;19.68
82297;BMP280;71899;51.992;8.648;2023-09-07T06:43:38;100790.63;;;20.22
82297;BMP280;71899;51.992;8.648;2023-09-07T06:46:06;100795.72;;;21.07
82297;BMP280;71899;51.992;8.648;2023-09-07T06:48:32;100794.28;;;22.19
82297;BMP280;71899;51.992;8.648;2023-09-07T06:51:04;100790.41;;;23.07
82297;BMP280;71899;51.992;8.648;2023-09-07T06:53:31;100788.19;;;24.09
82297;BMP280;71899;51.992;8.648;2023-09-07T06:55:57;100787.78;;;24.99
82297;BMP280;71899;51.992;8.648;2023-09-07T06:58:23;100782.19;;;26.37
82297;BMP280;71899;51.992;8.648;2023-09-07T07:00:49;100776.41;;;27.71
82297;BMP280;71899;51.992;8.648;2023-09-07T07:03:14;100774.06;;;29.39
82297;BMP280;71899;51.992;8.648;2023-09-07T07:05:39;100775.88;;;30.64
82297;BMP280;71899;51.992;8.648;2023-09-07T07:08:05;100765.34;;;31.69
82297;BMP280;71899;51.992;8.648;2023-09-07T07:10:31;100768.81;;;32.80
82297;BMP280;71899;51.992;8.648;2023-09-07T07:12:56;100772.53;;;33.16
82297;BMP280;71899;51.992;8.648;2023-09-07T07:15:21;100764.72;;;33.37
82297;BMP280;71899;51.992;8.648;2023-09-07T07:17:46;100758.94;;;34.22
82297;BMP280;71899;51.992;8.648;2023-09-07T07:20:12;100757.59;;;34.99
82297;BMP280;71899;51.992;8.648;2023-09-07T07:22:37;100762.47;;;35.42
82297;BMP280;71899;51.992;8.648;2023-09-07T07:25:04;100763.81;;;35.73
82297;BMP280;71899;51.992;8.648;2023-09-07T07:27:32;100768.53;;;36.33
82297;BMP280;71899;51.992;8.648;2023-09-07T07:29:58;100760.50;;;36.59
82297;BMP280;71899;51.992;8.648;2023-09-07T07:32:23;100771.59;;;37.01
82297;BMP280;71899;51.992;8.648;2023-09-07T07:34:48;100765.78;;;37.73
82297;BMP280;71899;51.992;8.648;2023-09-07T07:37:15;100770.91;;;38.01
82297;BMP280;71899;51.992;8.648;2023-09-07T07:39:40;100765.56;;;38.21
82297;BMP280;71899;51.992;8.648;2023-09-07T07:42:06;100767.22;;;38.22
82297;BMP280;71899;51.992;8.648;2023-09-07T07:44:31;100774.72;;;38.42
82297;BMP280;71899;51.992;8.648;2023-09-07T07:46:57;100775.16;;;38.29
82297;BMP280;71899;51.992;8.648;2023-09-07T07:49:22;100768.28;;;38.16
82297;BMP280;71899;51.992;8.648;2023-09-07T07:51:48;100770.78;;;37.86
82297;BMP280;71899;51.992;8.648;2023-09-07T07:54:13;100776.50;;;37.26
82297;BMP280;71899;51.992;8.648;2023-09-07T07:56:39;100767.16;;;37.17
82297;BMP280;71899;51.992;8.648;2023-09-07T07:59:05;100771.81;;;36.13
82297;BMP280;71899;51.992;8.648;2023-09-07T08:01:30;100775.47;;;35.85
82297;BMP280;71899;51.992;8.648;2023-09-07T08:03:58;100778.38;;;35.50
82297;BMP280;71899;51.992;8.648;2023-09-07T08:06:24;100773.63;;;35.12
82297;BMP280;71899;51.992;8.648;2023-09-07T08:08:50;100773.53;;;34.56
82297;BMP280;71899;51.992;8.648;2023-09-07T08:11:15;100774.38;;;34.33
82297;BMP280;71899;51.992;8.648;2023-09-07T08:13:42;100761.22;;;34.76
82297;BMP280;71899;51.992;8.648;2023-09-07T08:16:11;100772.56;;;34.62
82297;BMP280;71899;51.992;8.648;2023-09-07T08:18:36;100767.59;;;34.59
82297;BMP280;71899;51.992;8.648;2023-09-07T08:21:02;100767.28;;;34.09
82297;BMP280;71899;51.992;8.648;2023-09-07T08:23:27;100762.94;;;34.31
82297;BMP280;71899;51.992;8.648;2023-09-07T08:25:54;100763.41;;;34.05
82297;BMP280;71899;51.992;8.648;2023-09-07T08:28:22;100770.84;;;33.45
82297;BMP280;71899;51.992;8.648;2023-09-07T08:30:51;100769.50;;;33.65
82297;BMP280;71899;51.992;8.648;2023-09-07T08:33:21;100774.59;;;32.84
82297;BMP280;71899;51.992;8.648;2023-09-07T08:35:52;100777.38;;;32.41
82297;BMP280;71899;51.992;8.648;2023-09-07T08:38:18;100774.22;;;32.44
82297;BMP280;71899;51.992;8.648;2023-09-07T08:40:44;100775.63;;;32.10
82297;BMP280;71899;51.992;8.648;2023-09-07T08:43:11;100770.03;;;31.49
82297;BMP280;71899;51.992;8.648;2023-09-07T08:45:41;100785.19;;;30.74
82297;BMP280;71899;51.992;8.648;2023-09-07T08:48:12;100779.25;;;30.53
82297;BMP280;71899;51.992;8.648;2023-09-07T08:50:39;100779.69;;;30.23
82297;BMP280;71899;51.992;8.648;2023-09-07T08:53:05;100778.44;;;29.80
82297;BMP280;71899;51.992;8.648;2023-09-07T08:55:33;100778.25;;;29.94
82297;BMP280;71899;51.992;8.648;2023-09-07T08:57:58;100780.06;;;30.33
82297;BMP280;71899;51.992;8.648;2023-09-07T09:00:23;100767.00;;;31.01
82297;BMP280;71899;51.992;8.648;2023-09-07T09:02:49;100764.78;;;31.61
82297;BMP280;71899;51.992;8.648;2023-09-07T09:05:15;100769.06;;;32.18
82297;BMP280;71899;51.992;8.648;2023-09-07T09:07:43;100762.09;;;32.04
82297;BMP280;71899;51.992;8.648;2023-09-07T09:10:09;100767.78;;;32.63
82297;BMP280;71899;51.992;8.648;2023-09-07T09:12:35;100765.06;;;32.81
82297;BMP280;71899;51.992;8.648;2023-09-07T09:15:00;100750.22;;;32.84
82297;BMP280;71899;51.992;8.648;2023-09-07T09:17:29;100755.09;;;32.93
82297;BMP280;71899;51.992;8.648;2023-09-07T09:19:54;100752.16;;;33.25
82297;BMP280;71899;51.992;8.648;2023-09-07T09:22:19;100749.81;;;32.99
82297;BMP280;71899;51.992;8.648;2023-09-07T09:24:47;100757.03;;;33.05
82297;BMP280;71899;51.992;8.648;2023-09-07T09:27:13;100754.97;;;33.18
82297;BMP280;71899;51.992;8.648;2023-09-07T09:29:38;100750.00;;;33.45
82297;BMP280;71899;51.992;8.648;2023-09-07T09:32:05;100750.94;;;33.39
82297;BMP280;71899;51.992;8.648;2023-09-07T09:34:35;100749.31;;;32.90
82297;BMP280;71899;51.992;8.648;2023-09-07T09:37:02;100756.00;;;32.33
82297;BMP280;71899;51.992;8.648;2023-09-07T09:39:29;100746.84;;;32.34
82297;BMP280;71899;51.992;8.648;2023-09-07T09:41:55;100748.81;;;32.27
82297;BMP280;71899;51.992;8.648;2023-09-07T09:44:22;100745.66;;;32.66
82297;BMP280;71899;51.992;8.648;2023-09-07T09:46:52;100740.00;;;32.31
82297;BMP280;71899;51.992;8.648;2023-09-07T09:49:20;100739.19;;;32.13
82297;BMP280;71899;51.992;8.648;2023-09-07T09:51:45;100741.09;;;32.67
82297;BMP280;71899;51.992;8.648;2023-09-07T09:54:12;100750.47;;;32.64
82297;BMP280;71899;51.992;8.648;2023-09-07T09:56:38;100750.09;;;32.24
82297;BMP280;71899;51.992;8.648;2023-09-07T09:59:04;100744.72;;;31.75
82297;BMP280;71899;51.992;8.648;2023-09-07T10:01:29;100742.00;;;31.75
82297;BMP280;71899;51.992;8.648;2023-09-07T10:03:56;100738.59;;;32.04
82297;BMP280;71899;51.992;8.648;2023-09-07T10:06:25;100740.28;;;31.56
82297;BMP280;71899;51.992;8.648;2023-09-07T10:08:55;100737.16;;;31.59
82297;BMP280;71899;51.992;8.648;2023-09-07T10:11:29;100739.00;;;31.58
82297;BMP280;71899;51.992;8.648;2023-09-07T10:13:59;100733.94;;;31.37
82297;BMP280;71899;51.992;8.648;2023-09-07T10:16:25;100733.47;;;31.15
82297;BMP280;71899;51.992;8.648;2023-09-07T10:18:52;100724.50;;;31.53
82297;BMP280;71899;51.992;8.648;2023-09-07T10:21:17;100734.66;;;31.51
82297;BMP280;71899;51.992;8.648;2023-09-07T10:23:44;100721.88;;;31.39
82297;BMP280;71899;51.992;8.648;2023-09-07T10:26:15;100725.28;;;31.60
82297;BMP280;71899;51.992;8.648;2023-09-07T10:28:41;100714.53;;;31.78
82297;BMP280;71899;51.992;8.648;2023-09-07T10:31:12;100722.28;;;31.92
82297;BMP280;71899;51.992;8.648;2023-09-07T10:33:38;100722.88;;;31.94
82297;BMP280;71899;51.992;8.648;2023-09-07T10:36:05;100719.88;;;31.84
82297;BMP280;71899;51.992;8.648;2023-09-07T10:38:34;100720.47;;;31.62
82297;BMP280;71899;51.992;8.648;2023-09-07T10:41:02;100724.50;;;31.53
82297;BMP280;71899;51.992;8.648;2023-09-07T10:43:30;100717.13;;;31.35
82297;BMP280;71899;51.992;8.648;2023-09-07T10:45:56;100723.19;;;31.62
82297;BMP280;71899;51.992;8.648;2023-09-07T10:48:25;100714.91;;;31.50
82297;BMP280;71899;51.992;8.648;2023-09-07T10:50:51;100712.16;;;31.63
82297;BMP280;71899;51.992;8.648;2023-09-07T10:53:26;100715.66;;;31.88
82297;BMP280;71899;51.992;8.648;2023-09-07T10:55:53;100717.00;;;31.79
82297;BMP280;71899;51.992;8.648;2023-09-07T10:58:30;100716.09;;;31.61
82297;BMP280;71899;51.992;8.648;2023-09-07T11:00:56;100718.03;;;31.54
82297;BMP280;71899;51.992;8.648;2023-09-07T11:03:22;100713.41;;;31.61
82297;BMP280;71899;51.992;8.648;2023-09-07T11:05:48;100714.22;;;31.68
82297;BMP280;71899;51.992;8.648;2023-09-07T11:08:14;100708.16;;;31.90
82297;BMP280;71899;51.992;8.648;2023-09-07T11:10:39;100707.47;;;32.20
82297;BMP280;71899;51.992;8.648;2023-09-07T11:13:05;100696.97;;;32.05
82297;BMP280;71899;51.992;8.648;2023-09-07T11:15:31;100697.09;;;32.35
82297;BMP280;71899;51.992;8.648;2023-09-07T11:18:03;100695.34;;;32.22
82297;BMP280;71899;51.992;8.648;2023-09-07T11:20:28;100684.88;;;32.44
82297;BMP280;71899;51.992;8.648;2023-09-07T11:22:53;100678.81;;;32.67
82297;BMP280;71899;51.992;8.648;2023-09-07T11:25:19;100686.41;;;32.88
82297;BMP280;71899;51.992;8.648;2023-09-07T11:27:44;100679.81;;;32.84
82297;BMP280;71899;51.992;8.648;2023-09-07T11:30:10;100674.00;;;33.10
82297;BMP280;71899;51.992;8.648;2023-09-07T11:32:36;100673.16;;;33.10
82297;BMP280;71899;51.992;8.648;2023-09-07T11:35:02;100675.94;;;32.91
82297;BMP280;71899;51.992;8.648;2023-09-07T11:37:27;100669.66;;;32.79
82297;BMP280;71899;51.992;8.648;2023-09-07T11:39:52;100671.69;;;32.84
82297;BMP280;71899;51.992;8.648;2023-09-07T11:42:18;100665.16;;;32.55
82297;BMP280;71899;51.992;8.648;2023-09-07T11:44:43;100662.69;;;32.54
82297;BMP280;71899;51.992;8.648;2023-09-07T11:47:08;100664.59;;;32.83
82297;BMP280;71899;51.992;8.648;2023-09-07T11:49:34;100661.56;;;32.91
82297;BMP280;71899;51.992;8.648;2023-09-07T11:51:59;100655.94;;;33.04
82297;BMP280;71899;51.992;8.648;2023-09-07T11:54:24;100653.56;;;32.84
82297;BMP280;71899;51.992;8.648;2023-09-07T11:56:50;100653.75;;;33.13
82297;BMP280;71899;51.992;8.648;2023-09-07T11:59:15;100662.25;;;33.16
82297;BMP280;71899;51.992;8.648;2023-09-07T12:01:43;100658.59;;;32.81
82297;BMP280;71899;51.992;8.648;2023-09-07T12:04:09;100652.41;;;32.44
82297;BMP280;71899;51.992;8.648;2023-09-07T12:06:35;100654.00;;;32.33
82297;BMP280;71899;51.992;8.648;2023-09-07T12:09:04;100655.03;;;32.51
82297;BMP280;71899;51.992;8.648;2023-09-07T12:11:32;100653.50;;;32.55
82297;BMP280;71899;51.992;8.648;2023-09-07T12:13:57;100656.53;;;32.47
82297;BMP280;71899;51.992;8.648;2023-09-07T12:16:23;100657.00;;;32.62
82297;BMP280;71899;51.992;8.648;2023-09-07T12:18:48;100653.59;;;33.08
82297;BMP280;71899;51.992;8.648;2023-09-07T12:21:14;100640.44;;;33.11
82297;BMP280;71899;51.992;8.648;2023-09-07T12:23:39;100645.66;;;33.24
82297;BMP280;71899;51.992;8.648;2023-09-07T12:26:04;100640.59;;;33.28
82297;BMP280;71899;51.992;8.648;2023-09-07T12:28:33;100632.50;;;33.63
82297;BMP280;71899;51.992;8.648;2023-09-07T12:30:58;100635.31;;;33.68
82297;BMP280;71899;51.992;8.648;2023-09-07T12:33:24;100637.09;;;33.74
82297;BMP280;71899;51.992;8.648;2023-09-07T12:35:49;100629.06;;;33.56
82297;BMP280;71899;51.992;8.648;2023-09-07T12:38:14;100626.44;;;33.61
82297;BMP280;71899;51.992;8.648;2023-09-07T12:40:45;100618.41;;;33.89
82297;BMP280;71899;51.992;8.648;2023-09-07T12:43:11;100621.53;;;33.81
82297;BMP280;71899;51.992;8.648;2023-09-07T12:45:36;100623.38;;;33.92
82297;BMP280;71899;51.992;8.648;2023-09-07T12:48:02;100617.47;;;33.95
82297;BMP280;71899;51.992;8.648;2023-09-07T12:50:27;100626.41;;;34.07
82297;BMP280;71899;51.992;8.648;2023-09-07T12:52:53;100618.19;;;33.79
82297;BMP280;71899;51.992;8.648;2023-09-07T12:55:19;100618.53;;;33.94
82297;BMP280;71899;51.992;8.648;2023-09-07T12:57:44;100616.16;;;33.98
82297;BMP280;71899;51.992;8.648;2023-09-07T13:00:10;100610.72;;;34.09
82297;BMP280;71899;51.992;8.648;2023-09-07T13:02:36;100610.53;;;33.87
82297;BMP280;71899;51.992;8.648;2023-09-07T13:05:02;100612.25;;;34.05
82297;BMP280;71899;51.992;8.648;2023-09-07T13:07:31;100608.25;;;34.19
82297;BMP280;71899;51.992;8.648;2023-09-07T13:09:57;100613.13;;;33.59
82297;BMP280;71899;51.992;8.648;2023-09-07T13:12:22;100612.66;;;33.51
82297;BMP280;71899;51.992;8.648;2023-09-07T13:14:48;100609.38;;;33.49
82297;BMP280;71899;51.992;8.648;2023-09-07T13:17:13;100608.75;;;33.58
82297;BMP280;71899;51.992;8.648;2023-09-07T13:19:41;100598.88;;;33.75
82297;BMP280;71899;51.992;8.648;2023-09-07T13:22:08;100592.81;;;33.97
82297;BMP280;71899;51.992;8.648;2023-09-07T13:24:33;100600.59;;;33.93
82297;BMP280;71899;51.992;8.648;2023-09-07T13:26:58;100601.69;;;33.92
82297;BMP280;71899;51.992;8.648;2023-09-07T13:29:24;100595.38;;;34.15
82297;BMP280;71899;51.992;8.648;2023-09-07T13:31:51;100588.34;;;34.14
82297;BMP280;71899;51.992;8.648;2023-09-07T13:34:18;100588.22;;;34.37
82297;BMP280;71899;51.992;8.648;2023-09-07T13:36:44;100592.25;;;34.34
82297;BMP280;71899;51.992;8.648;2023-09-07T13:39:09;100586.41;;;34.14
82297;BMP280;71899;51.992;8.648;2023-09-07T13:41:35;100587.34;;;34.20
82297;BMP280;71899;51.992;8.648;2023-09-07T13:44:01;100585.16;;;33.94
82297;BMP280;71899;51.992;8.648;2023-09-07T13:46:26;100596.03;;;33.59
82297;BMP280;71899;51.992;8.648;2023-09-07T13:48:51;100590.03;;;33.68
82297;BMP280;71899;51.992;8.648;2023-09-07T13:51:17;100579.41;;;33.78